Terminal Aerodrome Forecast
Issued by NWS New Orleans/Baton Rouge, LA

Home | Current Version | Previous Version | Text Only | Print | Product List | Glossary On
Versions: 1 2 3 4 5 6 7 8 9 10 11 12 13 14 15
000
FTUS44 KLIX 282349
TAFNEW
TAF
KNEW 282349Z 2900/2924 16007KT P6SM FEW015 SCT060 BKN150
      TEMPO 2905/2909 4SM TSRA BKN040CB
     FM290900 15006KT 5SM -SHRA VCTS SCT020 OVC035CB
     FM291600 17010KT 4SM SHRA VCTS OVC025CB
     FM292000 18011KT P6SM SHRA VCTS BKN035CB=

USA.gov is the U.S. government's official web portal to all federal, state and local government web resources and services.